createdAt,value
2022-07-25T00:02:01.058Z,20.90
2022-07-25T00:14:49.532Z,20.80
2022-07-25T04:14:31.089Z,19.60
2022-07-25T04:58:38.227Z,20.20
2022-07-25T05:40:48.384Z,21.40
2022-07-25T05:44:18.205Z,21.60
2022-07-25T05:48:19.764Z,21.60
2022-07-25T06:02:57.320Z,22.10
2022-07-25T06:05:55.443Z,22.30
2022-07-25T06:09:13.143Z,22.40
2022-07-25T06:15:40.679Z,22.60
2022-07-25T06:22:47.414Z,22.90
2022-07-25T06:26:19.764Z,23.00
2022-07-25T06:28:49.406Z,23.20
2022-07-25T06:31:17.518Z,23.30
2022-07-25T06:33:46.667Z,23.40
2022-07-25T06:36:14.678Z,23.40
2022-07-25T06:38:42.659Z,23.50
2022-07-25T06:41:15.591Z,23.60
2022-07-25T06:43:43.716Z,23.70
2022-07-25T06:46:13.127Z,23.90
2022-07-25T06:48:41.758Z,23.90
2022-07-25T06:51:54.330Z,24.00
2022-07-25T07:39:21.326Z,26.40
2022-07-25T08:04:05.898Z,27.70
2022-07-25T08:06:58.562Z,28.50
2022-07-25T08:09:27.037Z,28.50
2022-07-25T08:11:55.046Z,28.70
2022-07-25T08:14:23.682Z,28.90
2022-07-25T08:20:36.429Z,29.20
2022-07-25T08:23:02.337Z,29.50
2022-07-25T08:25:31.653Z,29.90
2022-07-25T08:28:00.375Z,30.20
2022-07-25T08:30:31.639Z,30.30
2022-07-25T08:33:01.266Z,30.50
2022-07-25T08:35:30.187Z,30.80
2022-07-25T08:37:59.634Z,30.80
2022-07-25T08:40:31.616Z,30.90
2022-07-25T08:43:11.605Z,30.90
2022-07-25T08:46:17.699Z,31.20
2022-07-25T08:49:35.546Z,31.20
2022-07-25T08:53:16.116Z,30.90
2022-07-25T08:55:56.812Z,31.10
2022-07-25T08:58:24.808Z,31.20
2022-07-25T09:00:53.454Z,31.40
2022-07-25T09:03:21.426Z,31.60
2022-07-25T09:05:49.452Z,31.70
2022-07-25T09:08:18.701Z,31.70
2022-07-25T09:10:49.772Z,31.70
2022-07-25T09:13:18.858Z,32.00
2022-07-25T09:16:15.020Z,32.20
2022-07-25T09:19:13.369Z,32.30
2022-07-25T09:21:47.267Z,32.20
2022-07-25T09:25:02.221Z,32.40
2022-07-25T09:27:35.909Z,32.20
2022-07-25T09:30:14.406Z,32.20
2022-07-25T09:32:42.810Z,32.20
2022-07-25T09:35:11.541Z,32.20
2022-07-25T09:37:39.577Z,32.40
2022-07-25T09:40:15.315Z,32.40
2022-07-25T09:42:47.597Z,32.50
2022-07-25T09:45:16.246Z,32.60
2022-07-25T09:47:55.234Z,32.90
2022-07-25T09:50:27.709Z,33.00
2022-07-25T09:52:57.582Z,33.10
2022-07-25T09:55:26.674Z,33.20
2022-07-25T09:57:56.156Z,33.50
2022-07-25T10:00:27.327Z,33.30
2022-07-25T10:03:11.465Z,33.30
2022-07-25T10:06:04.163Z,33.60
2022-07-25T10:08:37.242Z,33.50
2022-07-25T10:11:07.066Z,33.40
2022-07-25T10:13:40.352Z,33.80
2022-07-25T10:16:17.729Z,33.90
2022-07-25T10:18:50.882Z,33.80
2022-07-25T10:21:27.004Z,33.90
2022-07-25T10:24:04.602Z,34.10
2022-07-25T10:26:34.082Z,34.20
2022-07-25T10:29:09.957Z,34.30
2022-07-25T10:31:40.191Z,34.20
2022-07-25T10:34:11.794Z,34.20
2022-07-25T10:36:45.102Z,34.20
2022-07-25T10:39:15.790Z,34.30
2022-07-25T10:41:45.426Z,34.60
2022-07-25T10:44:16.749Z,34.40
2022-07-25T10:46:46.144Z,34.20
2022-07-25T10:49:29.094Z,34.40
2022-07-25T10:52:03.194Z,34.30
2022-07-25T10:54:36.272Z,34.30
2022-07-25T10:57:06.400Z,34.60
2022-07-25T10:59:38.736Z,34.90
2022-07-25T11:02:09.514Z,34.90
2022-07-25T11:04:38.341Z,34.70
2022-07-25T11:07:10.598Z,35.10
2022-07-25T11:09:39.046Z,35.40
2022-07-25T11:12:08.092Z,35.20
2022-07-25T11:14:41.296Z,35.10
2022-07-25T11:17:19.171Z,35.20
2022-07-25T11:19:56.719Z,35.70
2022-07-25T11:22:24.987Z,35.40
2022-07-25T11:24:53.284Z,35.50
2022-07-25T11:27:26.737Z,35.50
2022-07-25T11:30:06.446Z,35.80
2022-07-25T11:32:40.390Z,36.40
2022-07-25T11:35:14.990Z,36.60
2022-07-25T11:37:51.992Z,36.80
2022-07-25T11:40:22.848Z,36.80
2022-07-25T11:43:27.164Z,37.20
2022-07-25T11:46:07.756Z,37.50
2022-07-25T11:48:57.255Z,37.40
2022-07-25T11:52:05.644Z,37.30
2022-07-25T11:54:33.595Z,37.00
2022-07-25T11:57:01.633Z,37.20
2022-07-25T11:59:30.180Z,37.30
2022-07-25T12:01:59.610Z,37.40
2022-07-25T12:04:28.651Z,37.30
2022-07-25T12:07:07.876Z,37.80
2022-07-25T12:09:36.244Z,38.40
2022-07-25T12:12:05.360Z,38.30
2022-07-25T12:14:43.751Z,38.20
2022-07-25T12:17:13.583Z,38.30
2022-07-25T12:19:44.329Z,37.80
2022-07-25T12:22:12.246Z,37.70
2022-07-25T12:24:40.237Z,37.50
2022-07-25T12:27:08.634Z,37.60
2022-07-25T12:29:36.655Z,37.60
2022-07-25T12:32:04.813Z,38.10
2022-07-25T12:34:38.088Z,38.00
2022-07-25T12:37:06.331Z,38.20
2022-07-25T12:39:34.589Z,38.80
2022-07-25T12:42:02.539Z,38.90
2022-07-25T12:44:30.642Z,38.50
2022-07-25T12:46:58.627Z,39.50
2022-07-25T12:49:26.669Z,40.00
2022-07-25T12:51:58.193Z,40.00
2022-07-25T12:54:26.314Z,39.90
2022-07-25T12:56:54.264Z,39.60
2022-07-25T12:59:22.767Z,39.40
2022-07-25T13:01:51.076Z,39.30
2022-07-25T13:04:19.122Z,40.20
2022-07-25T13:06:47.229Z,40.30
2022-07-25T13:09:16.589Z,40.10
2022-07-25T13:11:44.598Z,40.10
2022-07-25T13:14:13.061Z,39.50
2022-07-25T13:16:41.487Z,39.50
2022-07-25T13:19:09.804Z,39.50
2022-07-25T13:21:38.876Z,39.40
2022-07-25T13:24:08.156Z,39.20
2022-07-25T13:26:38.926Z,38.30
2022-07-25T13:29:09.730Z,38.30
2022-07-25T13:31:39.438Z,38.00
2022-07-25T13:34:09.071Z,37.90
2022-07-25T13:36:38.515Z,38.00
2022-07-25T13:39:07.808Z,38.00
2022-07-25T13:41:37.483Z,37.90
2022-07-25T13:44:06.245Z,37.80
2022-07-25T13:46:35.636Z,37.70
2022-07-25T13:49:04.182Z,37.60
2022-07-25T13:51:32.391Z,37.50
2022-07-25T13:54:03.539Z,37.50
2022-07-25T13:56:32.971Z,37.40
2022-07-25T13:59:04.672Z,37.30
2022-07-25T14:01:33.508Z,37.40
2022-07-25T14:04:01.557Z,37.70
2022-07-25T14:06:29.498Z,37.40
2022-07-25T14:08:57.855Z,37.00
2022-07-25T14:11:30.605Z,36.70
2022-07-25T14:13:58.812Z,36.50
2022-07-25T14:16:28.311Z,36.40
2022-07-25T14:18:56.256Z,36.50
2022-07-25T14:21:24.280Z,36.90
2022-07-25T14:23:54.270Z,37.00
2022-07-25T14:26:22.240Z,37.30
2022-07-25T14:28:51.149Z,37.30
2022-07-25T14:31:19.206Z,37.50
2022-07-25T14:33:48.689Z,37.90
2022-07-25T14:36:17.293Z,38.10
2022-07-25T14:38:48.169Z,38.30
2022-07-25T14:41:16.715Z,37.80
2022-07-25T14:43:45.421Z,37.00
2022-07-25T14:46:13.456Z,36.70
2022-07-25T14:48:41.898Z,36.30
2022-07-25T14:51:11.395Z,36.20
2022-07-25T14:53:40.259Z,35.90
2022-07-25T14:56:08.753Z,35.80
2022-07-25T14:58:38.371Z,35.60
2022-07-25T15:01:06.561Z,35.50
2022-07-25T15:03:34.594Z,35.60
2022-07-25T15:06:03.435Z,35.60
2022-07-25T15:08:32.692Z,35.60
2022-07-25T15:11:00.630Z,35.60
2022-07-25T15:13:31.615Z,35.30
2022-07-25T15:16:00.632Z,35.20
2022-07-25T15:18:29.317Z,35.30
2022-07-25T15:20:57.417Z,35.20
2022-07-25T15:23:29.751Z,35.10
2022-07-25T15:26:02.774Z,35.00
2022-07-25T15:28:31.591Z,35.20
2022-07-25T15:31:00.209Z,35.30
2022-07-25T15:33:28.283Z,35.40
2022-07-25T15:35:56.430Z,35.30
2022-07-25T15:38:24.812Z,35.30
2022-07-25T15:40:53.132Z,35.40
2022-07-25T15:43:22.514Z,35.50
2022-07-25T15:45:50.821Z,35.50
2022-07-25T15:48:19.830Z,35.90
2022-07-25T15:50:52.480Z,37.00
2022-07-25T15:53:20.563Z,36.70
2022-07-25T15:55:48.747Z,36.50
2022-07-25T15:58:17.102Z,36.10
2022-07-25T16:00:46.799Z,35.60
2022-07-25T16:03:36.397Z,35.30
2022-07-25T16:18:27.461Z,34.10
2022-07-25T16:21:19.496Z,33.90
2022-07-25T16:27:40.707Z,33.40
2022-07-25T16:30:10.095Z,28.70
2022-07-25T16:32:39.401Z,22.20
2022-07-25T16:35:09.428Z,21.40
2022-07-25T16:37:37.569Z,21.00
2022-07-25T16:40:08.338Z,21.00
2022-07-25T16:42:36.666Z,21.20
2022-07-25T16:45:23.875Z,21.30
2022-07-25T16:48:03.955Z,21.70
2022-07-25T16:50:33.782Z,22.30
2022-07-25T16:53:14.036Z,22.50
2022-07-25T16:55:51.834Z,23.00
2022-07-25T16:58:24.998Z,23.40
2022-07-25T17:01:19.385Z,23.30
2022-07-25T17:04:20.892Z,23.30
2022-07-25T17:29:17.215Z,23.40
2022-07-25T17:40:11.677Z,23.50
2022-07-25T20:28:36.444Z,23.50
2022-07-25T20:35:28.774Z,23.50
2022-07-25T20:45:54.439Z,23.50
2022-07-25T21:08:26.836Z,23.30
2022-07-25T21:19:03.229Z,23.10
2022-07-25T21:21:41.841Z,23.00
2022-07-25T21:24:11.929Z,22.90
2022-07-25T21:26:43.198Z,22.90
2022-07-25T21:29:11.695Z,22.80
2022-07-25T21:31:42.644Z,22.70
2022-07-25T21:34:21.810Z,22.60
2022-07-25T21:40:21.784Z,22.50
2022-07-25T22:36:58.472Z,21.40
2022-07-25T23:36:37.802Z,20.20
2022-07-25T23:40:29.305Z,20.20
